Time;durP1;ratioP1;P1;durP2;ratioP2;P2;SDS_P1;SDS_P2;PMS_P1;PMS_P2;Temp;Humidity;BMP_temperature;BMP_pressure;BME280_temperature;BME280_humidity;BME280_pressure;Samples;Min_cycle;Max_cycle;Signal;HPM_P1;HPM_P2
2023/10/06 00:03:29;;;;;;;14.10;6.10;;;;;;;12.44;100.00;99834.44;272989;1270;23036;-82
2023/10/06 00:09:31;;;;;;;16.40;6.00;;;;;;;12.41;100.00;99835.00;272666;1270;23581;-82
2023/10/06 00:15:39;;;;;;;13.90;6.30;;;;;;;12.36;100.00;99833.58;273298;1272;22214;-82
2023/10/06 00:21:46;;;;;;;14.90;5.40;;;;;;;12.40;100.00;99836.07;272703;1268;22691;-84
2023/10/06 00:27:48;;;;;;;13.30;5.90;;;;;;;12.46;100.00;99835.34;272741;1270;23182;-81
2023/10/06 00:33:50;;;;;;;9.00;4.90;;;;;;;12.49;100.00;99833.24;272796;1270;22221;-81
2023/10/06 00:39:54;;;;;;;14.50;5.50;;;;;;;12.50;100.00;99837.66;273008;1272;22250;-81
2023/10/06 00:46:00;;;;;;;11.60;5.20;;;;;;;12.49;100.00;99841.66;270886;1271;22535;-82
2023/10/06 00:52:06;;;;;;;12.80;5.50;;;;;;;12.50;100.00;99846.30;271922;1270;22204;-82
2023/10/06 00:58:10;;;;;;;10.60;5.00;;;;;;;12.45;100.00;99851.55;272768;1270;22345;-82
2023/10/06 01:04:16;;;;;;;14.50;5.90;;;;;;;12.50;100.00;99856.81;271426;1262;23154;-82
2023/10/06 01:10:27;;;;;;;11.00;5.80;;;;;;;12.52;100.00;99862.04;270373;1270;22195;-82
2023/10/06 01:16:38;;;;;;;15.30;5.40;;;;;;;12.49;100.00;99866.53;272910;1270;22173;-82
2023/10/06 01:22:45;;;;;;;13.30;5.70;;;;;;;12.47;100.00;99873.23;272834;1259;23240;-82
2023/10/06 01:28:47;;;;;;;8.20;4.30;;;;;;;12.46;100.00;99879.17;272962;1270;22309;-81
2023/10/06 01:34:50;;;;;;;11.50;4.60;;;;;;;12.43;100.00;99881.71;271649;1270;22269;-82
2023/10/06 01:40:54;;;;;;;10.30;4.40;;;;;;;12.39;100.00;99890.60;272238;1270;22267;-82
2023/10/06 01:46:57;;;;;;;8.90;4.80;;;;;;;12.36;100.00;99898.86;272825;1263;22421;-82
2023/10/06 01:53:20;;;;;;;11.50;5.30;;;;;;;12.35;100.00;99905.11;273525;1278;22200;-82
2023/10/06 01:59:21;;;;;;;14.00;5.70;;;;;;;12.34;100.00;99907.13;272459;1270;22372;-83
2023/10/06 02:05:23;;;;;;;12.30;4.70;;;;;;;12.32;100.00;99910.79;272791;1270;22190;-82
2023/10/06 02:11:30;;;;;;;13.30;5.00;;;;;;;12.31;100.00;99911.06;272844;1270;22321;-82
2023/10/06 02:17:34;;;;;;;;;;;;;;;12.29;100.00;99915.89;272741;1270;22420;-82
2023/10/06 02:23:37;;;;;;;12.30;4.40;;;;;;;12.25;100.00;99915.42;272681;1270;22201;-83
2023/10/06 02:29:42;;;;;;;10.10;4.00;;;;;;;12.18;100.00;99918.35;273395;1270;22172;-82
2023/10/06 02:35:46;;;;;;;13.20;5.10;;;;;;;12.08;100.00;99919.26;272771;1270;22380;-81
2023/10/06 02:41:49;;;;;;;12.10;5.30;;;;;;;12.00;100.00;99918.94;272848;1270;22260;-81
2023/10/06 02:47:58;;;;;;;10.70;5.40;;;;;;;11.94;100.00;99918.73;272844;1270;22303;-82
2023/10/06 03:06:31;;;;;;;12.40;5.00;;;;;;;11.72;100.00;99926.35;272871;1270;23887;-82
2023/10/06 03:12:39;;;;;;;14.90;5.40;;;;;;;11.65;100.00;99924.09;272829;1270;23505;-82
2023/10/06 03:18:44;;;;;;;11.70;4.80;;;;;;;11.58;100.00;99924.77;272321;1262;22526;-82
2023/10/06 03:24:59;;;;;;;11.00;4.40;;;;;;;11.48;100.00;99929.79;272303;1265;22445;-83
2023/10/06 03:43:55;;;;;;;13.20;5.80;;;;;;;11.11;100.00;99947.98;272170;1270;22376;-82
2023/10/06 03:49:57;;;;;;;13.90;5.30;;;;;;;10.98;100.00;99949.69;271313;1270;2114129;-82
2023/10/06 03:55:59;;;;;;;10.70;5.20;;;;;;;10.96;100.00;99961.38;272698;1270;22430;-82
2023/10/06 04:02:04;;;;;;;12.50;6.20;;;;;;;10.80;100.00;99958.72;272744;1270;22169;-81
2023/10/06 04:08:14;;;;;;;14.10;6.60;;;;;;;10.58;100.00;99953.91;272993;1270;22226;-82
2023/10/06 04:14:16;;;;;;;12.90;6.20;;;;;;;10.48;100.00;99952.02;272665;1270;22193;-82
2023/10/06 04:20:21;;;;;;;12.10;6.60;;;;;;;10.41;100.00;99959.09;272262;1270;22211;-82
2023/10/06 04:26:25;;;;;;;13.20;6.90;;;;;;;10.42;100.00;99970.70;272758;1270;22180;-83
2023/10/06 04:32:27;;;;;;;11.40;6.40;;;;;;;10.39;100.00;99974.77;272729;1272;22960;-82
2023/10/06 04:38:29;;;;;;;11.60;5.90;;;;;;;10.32;100.00;99980.04;272761;1270;22206;-82
2023/10/06 04:44:31;;;;;;;9.40;5.90;;;;;;;10.25;100.00;99985.70;271789;1270;23432;-82
2023/10/06 04:50:34;;;;;;;12.00;6.20;;;;;;;10.09;100.00;99987.32;272786;1271;22193;-82
2023/10/06 04:56:36;;;;;;;12.30;5.50;;;;;;;9.97;100.00;99992.94;272119;1270;23464;-82
2023/10/06 05:02:42;;;;;;;12.20;5.90;;;;;;;9.91;100.00;99997.19;272753;1270;23405;-82
2023/10/06 05:08:47;;;;;;;13.80;6.20;;;;;;;9.90;100.00;100001.15;272743;1270;22316;-82
2023/10/06 05:14:49;;;;;;;10.70;5.50;;;;;;;9.88;100.00;100005.70;272828;1270;22881;-82
2023/10/06 05:20:52;;;;;;;10.60;5.80;;;;;;;9.85;100.00;100013.81;272780;1270;23956;-82
2023/10/06 05:26:53;;;;;;;15.10;5.80;;;;;;;9.85;100.00;100012.33;272936;1270;22197;-82
2023/10/06 05:32:57;;;;;;;8.30;5.80;;;;;;;9.87;100.00;100015.74;272871;1270;22144;-81
2023/10/06 05:39:05;;;;;;;10.30;5.70;;;;;;;9.95;100.00;100021.84;273376;1272;22183;-81
2023/10/06 05:45:18;;;;;;;9.40;6.10;;;;;;;10.16;100.00;100023.03;272791;1270;22217;-83
2023/10/06 05:51:21;;;;;;;11.80;5.90;;;;;;;10.45;100.00;100029.67;272718;1270;23657;-82
2023/10/06 05:57:23;;;;;;;11.80;6.70;;;;;;;10.78;100.00;100038.55;272570;1270;22237;-82
2023/10/06 06:03:25;;;;;;;10.40;6.50;;;;;;;11.13;100.00;100042.06;271794;1270;22539;-82
2023/10/06 06:09:27;;;;;;;10.20;5.80;;;;;;;11.56;100.00;100048.13;270475;1270;22518;-82
2023/10/06 06:15:31;;;;;;;10.50;5.80;;;;;;;11.90;100.00;100056.39;270443;1270;24327;-82
2023/10/06 06:21:34;;;;;;;9.10;5.60;;;;;;;12.20;100.00;100059.96;271031;1262;22357;-83
2023/10/06 06:27:37;;;;;;;12.80;5.80;;;;;;;12.41;100.00;100064.70;273056;1272;22835;-82
2023/10/06 06:34:04;;;;;;;16.70;7.10;;;;;;;12.41;100.00;100074.84;273032;1255;22179;-82
2023/10/06 06:40:10;;;;;;;;;;;;;;;12.39;100.00;100086.64;272585;1270;22428;-83
2023/10/06 06:46:12;;;;;;;15.10;6.60;;;;;;;12.43;100.00;100098.33;273180;1272;23485;-82
2023/10/06 06:52:15;;;;;;;11.70;6.20;;;;;;;12.49;100.00;100104.35;272613;1270;23419;-82
2023/10/06 06:58:17;;;;;;;15.40;6.40;;;;;;;12.58;100.00;100124.33;272549;1270;22186;-83
2023/10/06 07:04:19;;;;;;;15.10;6.50;;;;;;;12.55;100.00;100125.90;272572;1270;23286;-83
2023/10/06 07:10:22;;;;;;;11.60;6.60;;;;;;;12.52;100.00;100129.45;272640;1270;22323;-83
2023/10/06 07:16:27;;;;;;;13.00;6.60;;;;;;;12.70;100.00;100130.22;272717;1270;23200;-82
2023/10/06 07:22:31;;;;;;;12.10;6.90;;;;;;;12.84;100.00;100139.83;273111;1270;22210;-82
2023/10/06 07:28:34;;;;;;;12.50;6.70;;;;;;;13.00;100.00;100140.27;272589;1270;22211;-83
2023/10/06 07:34:35;;;;;;;16.80;8.70;;;;;;;13.20;100.00;100141.36;273089;1272;22662;-82
2023/10/06 07:40:38;;;;;;;14.90;8.30;;;;;;;13.22;100.00;100136.91;272704;1270;22198;-84
2023/10/06 07:46:41;;;;;;;12.50;7.10;;;;;;;13.34;100.00;100131.63;272692;1268;22191;-82
2023/10/06 07:52:44;;;;;;;12.90;6.30;;;;;;;13.46;100.00;100132.16;270852;1270;22502;-82
2023/10/06 07:58:46;;;;;;;10.50;7.30;;;;;;;13.63;100.00;100128.23;270450;1270;23153;-82
2023/10/06 08:04:48;;;;;;;10.40;6.10;;;;;;;13.72;100.00;100124.19;269858;1270;22306;-82
2023/10/06 08:10:53;;;;;;;11.00;6.40;;;;;;;13.70;100.00;100115.99;272782;1270;22663;-82
2023/10/06 08:16:54;;;;;;;14.60;7.10;;;;;;;13.62;100.00;100116.64;272389;1270;22322;-82
2023/10/06 08:22:57;;;;;;;12.10;6.70;;;;;;;13.76;100.00;100122.53;272426;1270;22302;-82
2023/10/06 08:28:59;;;;;;;12.10;6.20;;;;;;;14.28;100.00;100120.52;271332;1272;22192;-82
2023/10/06 08:35:02;;;;;;;11.10;5.30;;;;;;;14.58;100.00;100112.98;272793;1270;22242;-82
2023/10/06 08:41:04;;;;;;;11.50;6.10;;;;;;;15.02;100.00;100112.47;272365;1270;22321;-83
2023/10/06 08:47:12;;;;;;;10.40;6.40;;;;;;;15.55;100.00;100106.64;272582;1266;22214;-84
2023/10/06 08:53:15;;;;;;;9.20;4.90;;;;;;;16.27;100.00;100104.48;270871;1270;22513;-83
2023/10/06 08:59:20;;;;;;;9.00;4.90;;;;;;;17.15;99.78;100099.33;271755;1270;23100;-83
2023/10/06 09:05:22;;;;;;;5.30;3.20;;;;;;;17.84;99.47;100099.25;271902;1270;22438;-83
2023/10/06 09:11:42;;;;;;;3.90;2.50;;;;;;;18.73;97.13;100095.41;272678;1272;22381;-84
2023/10/06 09:17:45;;;;;;;5.40;3.10;;;;;;;19.65;96.05;100093.74;271521;1272;22374;-83
2023/10/06 09:23:49;;;;;;;5.60;2.70;;;;;;;20.30;92.97;100099.77;270652;1271;22422;-82
2023/10/06 09:30:11;;;;;;;5.20;3.00;;;;;;;20.11;90.11;100097.73;272020;1265;22590;-83
2023/10/06 09:36:21;;;;;;;6.30;3.10;;;;;;;19.82;87.84;100097.75;269790;1270;22537;-84
2023/10/06 09:42:31;;;;;;;4.20;2.30;;;;;;;19.71;87.83;100093.79;270689;1272;22355;-84
2023/10/06 09:48:36;;;;;;;5.80;2.80;;;;;;;20.25;86.32;100093.30;272317;1270;22159;-83
2023/10/06 09:54:38;;;;;;;9.80;3.50;;;;;;;20.35;84.79;100096.14;271732;1270;22415;-84
2023/10/06 10:00:44;;;;;;;10.00;3.60;;;;;;;19.63;83.15;100092.73;273093;1270;22305;-84
2023/10/06 10:06:46;;;;;;;5.70;2.60;;;;;;;19.54;83.27;100093.07;272330;1270;22478;-83
2023/10/06 10:13:36;;;;;;;8.20;2.90;;;;;;;19.47;83.43;100086.77;273197;1272;23298;-84
2023/10/06 10:19:38;;;;;;;7.50;2.40;;;;;;;20.31;82.60;100078.27;272491;1270;22195;-83
2023/10/06 10:25:40;;;;;;;5.70;2.30;;;;;;;21.15;80.53;100072.00;273392;1272;22192;-83
2023/10/06 10:31:46;;;;;;;7.70;2.90;;;;;;;21.51;77.66;100061.91;272995;1270;22500;-83
2023/10/06 10:37:57;;;;;;;6.00;3.30;;;;;;;21.26;75.97;100050.76;273214;1270;22204;-83
2023/10/06 10:44:01;;;;;;;6.30;2.20;;;;;;;20.93;75.32;100044.48;272416;1270;22187;-83
2023/10/06 10:50:05;;;;;;;5.80;2.00;;;;;;;20.54;73.70;100031.08;272933;1271;22142;-84
2023/10/06 10:56:15;;;;;;;3.90;2.10;;;;;;;20.19;73.12;100014.34;273248;1279;22267;-83
2023/10/06 11:02:19;;;;;;;7.10;1.70;;;;;;;20.00;73.04;100001.90;272679;1261;22305;-83
2023/10/06 11:08:22;;;;;;;5.70;1.60;;;;;;;19.89;71.88;99984.55;272924;1270;22549;-83
2023/10/06 11:14:29;;;;;;;5.20;1.60;;;;;;;19.49;70.38;99977.40;272073;1270;22746;-83
2023/10/06 11:20:38;;;;;;;4.20;1.70;;;;;;;18.96;69.93;99961.97;273309;1273;23271;-83
2023/10/06 11:26:43;;;;;;;3.20;1.70;;;;;;;18.57;69.86;99955.50;272943;1270;23658;-86
2023/10/06 11:32:48;;;;;;;8.20;1.80;;;;;;;18.45;69.61;99942.27;273317;1270;23468;-83
2023/10/06 11:38:50;;;;;;;3.90;1.80;;;;;;;18.34;69.35;99934.63;272875;1270;22315;-83
2023/10/06 11:44:53;;;;;;;4.90;2.40;;;;;;;18.24;69.39;99934.97;272799;1270;22251;-82
2023/10/06 11:51:06;;;;;;;6.40;2.20;;;;;;;18.18;68.91;99925.43;272811;1270;24453;-82
2023/10/06 11:57:09;;;;;;;3.70;1.50;;;;;;;18.10;69.09;99919.70;272740;1270;22210;-82
2023/10/06 12:03:11;;;;;;;6.00;1.70;;;;;;;18.07;69.23;99912.96;273020;1270;22188;-83
2023/10/06 12:09:48;;;;;;;5.30;1.70;;;;;;;17.91;68.49;99930.77;272370;1267;22603;-83
2023/10/06 12:15:51;;;;;;;5.60;1.50;;;;;;;17.81;68.32;99932.86;271851;1270;22430;-82
2023/10/06 12:21:56;;;;;;;7.10;1.80;;;;;;;17.75;68.27;99926.55;272139;1264;23984;-86
2023/10/06 12:28:00;;;;;;;8.60;1.70;;;;;;;17.67;68.62;99921.98;272043;1264;22537;-84
2023/10/06 12:34:03;;;;;;;5.00;1.60;;;;;;;17.59;68.49;99913.21;270549;1270;23702;-82
2023/10/06 12:40:11;;;;;;;6.10;1.50;;;;;;;17.51;68.53;99903.91;271311;1268;22921;-83
2023/10/06 12:46:13;;;;;;;4.00;1.50;;;;;;;17.48;68.42;99896.16;269946;1270;22482;-83
2023/10/06 12:52:15;;;;;;;5.60;1.20;;;;;;;17.37;67.56;99887.55;271087;1270;22485;-83
2023/10/06 12:58:17;;;;;;;3.80;1.80;;;;;;;17.30;67.42;99890.80;270898;1270;22536;-84
2023/10/06 13:04:19;;;;;;;5.40;1.50;;;;;;;17.26;67.91;99880.45;270520;1270;24336;-83
2023/10/06 13:10:22;;;;;;;3.40;1.50;;;;;;;17.19;67.83;99879.36;272251;1270;22338;-83
2023/10/06 13:16:24;;;;;;;3.50;1.10;;;;;;;17.06;67.13;99871.47;271464;1270;22418;-81
2023/10/06 13:22:27;;;;;;;4.50;1.40;;;;;;;16.97;66.97;99868.30;271497;1256;22281;-82
2023/10/06 13:28:30;;;;;;;3.50;1.60;;;;;;;16.88;67.38;99861.44;271252;1270;22549;-82
2023/10/06 13:34:33;;;;;;;4.10;1.70;;;;;;;16.79;67.26;99857.49;270342;1262;22298;-82
2023/10/06 13:40:37;;;;;;;5.00;1.90;;;;;;;16.75;67.28;99853.94;270242;1270;22523;-81
2023/10/06 13:46:40;;;;;;;4.90;1.90;;;;;;;16.71;67.44;99839.09;270476;1270;22528;-82
2023/10/06 13:52:43;;;;;;;3.60;1.70;;;;;;;16.65;67.61;99826.61;269777;1270;22545;-82
2023/10/06 13:58:46;;;;;;;8.70;1.90;;;;;;;16.64;68.15;99825.35;270542;1263;22326;-81
2023/10/06 14:04:49;;;;;;;4.90;1.80;;;;;;;16.61;68.82;99822.66;272580;1270;22354;-83
2023/10/06 14:10:51;;;;;;;6.10;1.50;;;;;;;16.55;69.05;99821.40;272900;1270;22457;-81
2023/10/06 14:16:54;;;;;;;4.00;1.80;;;;;;;16.53;69.43;99821.79;272909;1270;24960;-83
2023/10/06 14:22:56;;;;;;;5.60;2.00;;;;;;;16.47;70.13;99822.97;271864;1270;22311;-82
2023/10/06 14:28:58;;;;;;;4.10;1.80;;;;;;;16.41;70.78;99820.17;273031;1270;22217;-81
2023/10/06 14:35:12;;;;;;;3.20;1.80;;;;;;;16.35;71.16;99810.23;272094;1270;22566;-81
2023/10/06 14:47:36;;;;;;;6.90;1.90;;;;;;;16.29;71.37;99808.95;270993;1267;22674;-82
2023/10/06 14:53:39;;;;;;;4.50;2.00;;;;;;;16.25;71.93;99802.23;270903;1270;22646;-82
2023/10/06 14:59:44;;;;;;;6.80;2.20;;;;;;;16.21;72.16;99786.45;270365;1262;22594;-82
2023/10/06 15:05:46;;;;;;;5.50;2.00;;;;;;;16.14;72.84;99780.52;270933;1270;22520;-82
2023/10/06 15:11:50;;;;;;;3.70;1.80;;;;;;;16.08;73.27;99775.47;271973;1270;22599;-82
2023/10/06 15:17:55;;;;;;;4.40;2.00;;;;;;;16.01;74.20;99765.59;270096;1270;22543;-82
2023/10/06 15:23:56;;;;;;;4.50;1.60;;;;;;;15.94;74.58;99767.70;270064;1270;23712;-82
2023/10/06 15:29:58;;;;;;;3.60;2.00;;;;;;;15.78;75.18;99762.08;270400;1265;22453;-82
2023/10/06 15:36:02;;;;;;;4.50;2.50;;;;;;;15.65;75.65;99753.30;271996;1263;22392;-83
2023/10/06 15:42:04;;;;;;;5.00;2.50;;;;;;;15.52;75.97;99752.38;270095;1269;22315;-82
2023/10/06 15:48:12;;;;;;;4.70;2.50;;;;;;;15.45;76.55;99748.03;269323;1270;241844;-83
2023/10/06 15:54:15;;;;;;;6.30;2.90;;;;;;;15.35;76.96;99739.06;269737;1270;23593;-83
2023/10/06 16:00:38;;;;;;;6.00;2.90;;;;;;;15.16;77.50;99733.39;271467;1270;22303;-82
2023/10/06 16:06:42;;;;;;;10.50;3.10;;;;;;;15.02;78.16;99732.68;272802;1270;22856;-83
2023/10/06 16:12:46;;;;;;;10.40;4.70;;;;;;;14.84;78.79;99725.66;271741;1272;22187;-83
2023/10/06 16:18:48;;;;;;;9.30;4.40;;;;;;;14.57;78.92;99709.11;272674;1270;22151;-83
2023/10/06 16:24:50;;;;;;;8.30;3.70;;;;;;;14.39;80.05;99692.70;273096;1270;22285;-82
2023/10/06 16:30:56;;;;;;;7.30;4.10;;;;;;;14.19;81.04;99692.78;272845;1271;22320;-82
2023/10/06 16:36:58;;;;;;;8.20;3.90;;;;;;;13.95;81.64;99692.09;272628;1272;22705;-82
2023/10/06 16:43:00;;;;;;;10.10;3.30;;;;;;;13.78;82.24;99692.41;273717;1272;22251;-82
2023/10/06 16:49:03;;;;;;;8.90;4.10;;;;;;;13.66;82.99;99681.29;272900;1270;22213;-83
2023/10/06 16:55:08;;;;;;;7.50;3.70;;;;;;;13.55;84.03;99683.70;272766;1270;22186;-83
2023/10/06 17:01:11;;;;;;;9.10;4.20;;;;;;;13.44;84.55;99675.65;265219;1270;10002176;-82
2023/10/06 17:07:14;;;;;;;9.50;4.10;;;;;;;13.32;85.24;99670.42;272778;1270;22190;-82
2023/10/06 17:13:22;;;;;;;10.90;5.50;;;;;;;13.21;85.54;99678.15;272672;1270;23228;-83
2023/10/06 17:19:24;;;;;;;9.30;5.50;;;;;;;13.04;84.98;99672.06;272747;1263;22210;-85
2023/10/06 17:25:26;;;;;;;14.50;6.90;;;;;;;12.95;85.49;99649.30;272642;1270;22198;-83
2023/10/06 17:31:29;;;;;;;10.10;6.40;;;;;;;12.97;85.81;99632.54;273097;1272;22303;-82
2023/10/06 17:37:33;;;;;;;8.80;6.40;;;;;;;13.07;85.89;99622.06;272680;1272;22690;-82
2023/10/06 17:43:35;;;;;;;9.00;5.60;;;;;;;13.13;86.39;99625.44;272657;1272;23661;-83
2023/10/06 17:49:37;;;;;;;14.80;6.80;;;;;;;13.11;86.78;99626.52;272695;1271;22189;-83
2023/10/06 17:55:42;;;;;;;14.10;8.90;;;;;;;13.07;87.03;99622.14;272543;1270;23815;-82
2023/10/06 18:01:44;;;;;;;15.50;8.80;;;;;;;13.12;87.36;99632.10;272117;1271;22225;-85
2023/10/06 18:07:46;;;;;;;17.70;10.00;;;;;;;13.13;87.90;99640.83;273643;1272;23029;-82
2023/10/06 18:13:48;;;;;;;13.90;8.20;;;;;;;13.17;88.65;99642.20;272528;1272;23170;-82
2023/10/06 18:19:55;;;;;;;16.90;9.60;;;;;;;13.21;88.60;99635.58;272587;1257;22344;-83
2023/10/06 18:26:00;;;;;;;17.90;8.90;;;;;;;13.24;89.15;99633.64;272898;1270;22204;-82
2023/10/06 18:32:02;;;;;;;12.40;8.00;;;;;;;13.23;89.92;99629.16;273202;1272;22240;-82
2023/10/06 18:38:04;;;;;;;13.60;7.20;;;;;;;13.12;90.13;99623.31;272525;1270;22214;-85
2023/10/06 18:44:10;;;;;;;12.00;7.00;;;;;;;13.05;90.71;99607.05;272873;1272;22388;-82
2023/10/06 18:50:17;;;;;;;12.90;7.60;;;;;;;13.02;91.49;99594.70;272469;1272;22304;-83
2023/10/06 18:56:21;;;;;;;11.90;6.60;;;;;;;12.95;91.66;99587.75;272535;1270;23556;-82
2023/10/06 19:02:23;;;;;;;11.30;7.00;;;;;;;12.84;91.84;99584.10;272593;1270;22348;-82
2023/10/06 19:08:28;;;;;;;14.00;6.90;;;;;;;12.71;92.26;99579.55;272344;1272;23335;-83
2023/10/06 19:14:31;;;;;;;13.10;6.20;;;;;;;12.62;92.54;99573.17;272475;1265;22225;-82
2023/10/06 19:20:33;;;;;;;11.30;7.00;;;;;;;12.56;92.66;99572.23;272522;1272;22408;-82
2023/10/06 19:26:35;;;;;;;13.10;6.70;;;;;;;12.52;92.68;99575.78;272009;1271;22339;-83
2023/10/06 19:32:37;;;;;;;13.10;7.70;;;;;;;12.55;92.87;99557.69;272628;1271;22292;-82
2023/10/06 19:38:41;;;;;;;12.00;7.10;;;;;;;12.50;93.08;99544.70;272409;1271;22305;-83
2023/10/06 19:44:43;;;;;;;9.30;6.40;;;;;;;12.44;92.91;99537.64;272463;1272;22389;-82
2023/10/06 19:50:45;;;;;;;10.30;6.00;;;;;;;12.38;93.24;99539.45;272687;1272;22261;-82
2023/10/06 19:56:47;;;;;;;11.70;6.40;;;;;;;12.35;93.50;99540.58;272721;1272;23130;-84
2023/10/06 20:02:53;;;;;;;12.70;6.80;;;;;;;12.30;93.63;99541.61;273178;1273;22274;-82
2023/10/06 20:08:55;;;;;;;12.90;7.20;;;;;;;12.27;93.66;99536.72;272962;1272;22479;-82
2023/10/06 20:14:57;;;;;;;12.20;7.40;;;;;;;12.26;94.26;99523.14;273190;1272;22239;-83
2023/10/06 20:21:01;;;;;;;14.20;7.10;;;;;;;12.24;94.39;99518.64;271282;1271;22233;-82
2023/10/06 20:27:03;;;;;;;12.20;6.50;;;;;;;12.13;94.51;99517.01;272661;1262;22644;-83
2023/10/06 20:33:04;;;;;;;13.40;6.50;;;;;;;12.07;94.75;99513.86;270621;1272;23339;-83
2023/10/06 20:39:09;;;;;;;8.20;4.70;;;;;;;12.07;95.13;99506.66;270723;1272;22256;-83
2023/10/06 20:45:15;;;;;;;8.00;5.10;;;;;;;12.13;95.80;99499.06;271253;1272;22566;-84
2023/10/06 20:51:17;;;;;;;8.70;5.50;;;;;;;12.22;96.44;99491.56;270589;1272;22337;-84
2023/10/06 20:57:19;;;;;;;9.20;4.20;;;;;;;12.25;96.59;99488.70;270504;1272;22549;-81
2023/10/06 21:03:20;;;;;;;8.10;4.70;;;;;;;12.26;96.34;99494.83;271536;1272;22321;-82
2023/10/06 21:09:22;;;;;;;10.70;4.90;;;;;;;12.32;96.26;99491.77;272484;1272;22547;-83
2023/10/06 21:15:24;;;;;;;9.00;5.30;;;;;;;12.34;96.53;99490.61;271622;1272;23698;-82
2023/10/06 21:21:26;;;;;;;11.50;4.50;;;;;;;12.39;97.01;99492.48;271124;1272;23568;-82
2023/10/06 21:27:28;;;;;;;8.20;4.60;;;;;;;12.45;97.37;99480.55;270393;1272;22929;-82
2023/10/06 21:33:45;;;;;;;8.10;4.70;;;;;;;12.49;97.38;99469.52;272354;1272;24226;-82
2023/10/06 21:39:48;;;;;;;7.00;4.50;;;;;;;12.54;97.61;99466.35;270754;1272;22241;-83
2023/10/06 21:45:49;;;;;;;5.90;3.80;;;;;;;12.57;97.46;99457.04;270691;1272;22192;-82
2023/10/06 21:51:52;;;;;;;7.60;3.90;;;;;;;12.59;97.33;99451.90;272650;1270;22198;-83
2023/10/06 21:57:53;;;;;;;8.90;4.10;;;;;;;12.63;97.14;99445.81;272575;1272;22311;-83
2023/10/06 22:03:55;;;;;;;5.70;3.20;;;;;;;12.72;97.03;99443.56;272316;1272;22315;-83
2023/10/06 22:09:58;;;;;;;5.30;3.70;;;;;;;12.80;96.74;99443.48;271446;1270;22419;-83
2023/10/06 22:16:00;;;;;;;6.80;3.40;;;;;;;12.90;96.61;99441.91;272795;1272;22426;-82
2023/10/06 22:22:02;;;;;;;7.50;3.00;;;;;;;12.96;96.68;99438.73;272824;1272;22273;-82
2023/10/06 22:28:07;;;;;;;8.60;3.50;;;;;;;12.98;97.78;99434.76;273095;1271;22200;-82
2023/10/06 22:34:10;;;;;;;6.10;3.40;;;;;;;13.00;97.81;99427.70;272895;1272;22171;-81
2023/10/06 22:40:16;;;;;;;7.80;3.50;;;;;;;12.99;97.35;99423.16;272760;1271;22317;-81
2023/10/06 22:46:17;;;;;;;7.30;3.10;;;;;;;13.00;97.17;99409.50;272725;1270;22224;-82
2023/10/06 22:52:19;;;;;;;6.00;3.50;;;;;;;12.98;96.49;99399.51;272764;1272;22977;-81
2023/10/06 22:58:23;;;;;;;5.00;2.80;;;;;;;13.01;96.31;99401.90;273042;1270;23773;-82
2023/10/06 23:04:26;;;;;;;4.80;2.60;;;;;;;13.08;96.87;99398.51;272775;1272;23246;-81
2023/10/06 23:10:27;;;;;;;6.40;2.50;;;;;;;13.10;96.00;99393.58;272776;1272;23254;-81
2023/10/06 23:16:30;;;;;;;5.40;2.40;;;;;;;13.15;95.56;99387.96;272255;1272;22509;-82
2023/10/06 23:22:32;;;;;;;5.00;3.00;;;;;;;13.19;95.04;99373.61;271653;1270;23136;-84
2023/10/06 23:28:41;;;;;;;3.80;2.20;;;;;;;13.20;95.06;99367.34;272900;1272;22204;-82
2023/10/06 23:34:44;;;;;;;6.30;2.70;;;;;;;13.15;95.82;99358.98;272751;1271;23693;-82
2023/10/06 23:40:47;;;;;;;6.70;2.70;;;;;;;13.04;95.74;99349.49;272926;1272;23035;-81
2023/10/06 23:46:49;;;;;;;6.20;2.40;;;;;;;12.96;96.23;99344.52;272552;1272;22208;-81
2023/10/06 23:52:51;;;;;;;5.60;2.60;;;;;;;12.87;96.89;99329.40;271251;1272;24039;-82
2023/10/06 23:58:53;;;;;;;6.90;2.30;;;;;;;12.73;96.61;99324.90;272704;1272;22303;-81
